sensor_id;sensor_type;location;lat;lon;timestamp;P1;durP1;ratioP1;P2;durP2;ratioP2
25922;SDS011;13725;51.170;4.442;2022-08-20T00:00:11;23.10;;;12.02;;
25922;SDS011;13725;51.170;4.442;2022-08-20T00:02:49;20.13;;;11.10;;
25922;SDS011;13725;51.170;4.442;2022-08-20T00:07:53;15.30;;;9.65;;
25922;SDS011;13725;51.170;4.442;2022-08-20T00:10:19;20.27;;;10.18;;
25922;SDS011;13725;51.170;4.442;2022-08-20T00:12:47;18.08;;;10.60;;
25922;SDS011;13725;51.170;4.442;2022-08-20T00:15:14;18.15;;;10.38;;
25922;SDS011;13725;51.170;4.442;2022-08-20T00:17:43;18.15;;;10.82;;
25922;SDS011;13725;51.170;4.442;2022-08-20T00:20:10;19.67;;;9.93;;
25922;SDS011;13725;51.170;4.442;2022-08-20T00:22:37;18.75;;;10.55;;
25922;SDS011;13725;51.170;4.442;2022-08-20T00:25:04;20.15;;;10.07;;
25922;SDS011;13725;51.170;4.442;2022-08-20T00:27:30;23.15;;;10.75;;
25922;SDS011;13725;51.170;4.442;2022-08-20T00:29:56;20.52;;;10.77;;
25922;SDS011;13725;51.170;4.442;2022-08-20T00:32:22;20.45;;;10.68;;
25922;SDS011;13725;51.170;4.442;2022-08-20T00:34:47;21.20;;;10.52;;
25922;SDS011;13725;51.170;4.442;2022-08-20T00:37:13;16.25;;;10.07;;
25922;SDS011;13725;51.170;4.442;2022-08-20T00:39:39;22.45;;;10.10;;
25922;SDS011;13725;51.170;4.442;2022-08-20T00:42:05;21.23;;;10.23;;
25922;SDS011;13725;51.170;4.442;2022-08-20T00:44:31;21.05;;;10.63;;
25922;SDS011;13725;51.170;4.442;2022-08-20T00:46:57;18.90;;;10.93;;
25922;SDS011;13725;51.170;4.442;2022-08-20T00:49:26;21.75;;;11.27;;
25922;SDS011;13725;51.170;4.442;2022-08-20T00:56:54;18.15;;;10.73;;
25922;SDS011;13725;51.170;4.442;2022-08-20T00:59:24;18.02;;;11.02;;
25922;SDS011;13725;51.170;4.442;2022-08-20T01:01:52;20.30;;;10.93;;
25922;SDS011;13725;51.170;4.442;2022-08-20T01:04:18;17.85;;;10.38;;
25922;SDS011;13725;51.170;4.442;2022-08-20T01:06:44;24.33;;;10.07;;
25922;SDS011;13725;51.170;4.442;2022-08-20T01:09:10;18.80;;;10.38;;
25922;SDS011;13725;51.170;4.442;2022-08-20T01:11:36;21.75;;;9.45;;
25922;SDS011;13725;51.170;4.442;2022-08-20T01:14:05;19.08;;;8.77;;
25922;SDS011;13725;51.170;4.442;2022-08-20T01:17:05;19.23;;;8.70;;
25922;SDS011;13725;51.170;4.442;2022-08-20T01:19:34;19.25;;;9.20;;
25922;SDS011;13725;51.170;4.442;2022-08-20T01:22:04;26.37;;;12.30;;
25922;SDS011;13725;51.170;4.442;2022-08-20T01:24:52;21.35;;;9.57;;
25922;SDS011;13725;51.170;4.442;2022-08-20T01:27:25;18.45;;;10.82;;
25922;SDS011;13725;51.170;4.442;2022-08-20T01:29:52;25.33;;;11.32;;
25922;SDS011;13725;51.170;4.442;2022-08-20T01:32:18;22.90;;;11.88;;
25922;SDS011;13725;51.170;4.442;2022-08-20T01:34:44;27.15;;;12.95;;
25922;SDS011;13725;51.170;4.442;2022-08-20T01:37:09;27.70;;;14.15;;
25922;SDS011;13725;51.170;4.442;2022-08-20T01:39:35;27.30;;;13.93;;
25922;SDS011;13725;51.170;4.442;2022-08-20T01:44:33;28.63;;;13.60;;
25922;SDS011;13725;51.170;4.442;2022-08-20T01:47:14;26.63;;;12.43;;
25922;SDS011;13725;51.170;4.442;2022-08-20T01:49:47;30.20;;;11.45;;
25922;SDS011;13725;51.170;4.442;2022-08-20T01:52:24;26.92;;;10.98;;
25922;SDS011;13725;51.170;4.442;2022-08-20T01:54:52;29.05;;;10.40;;
25922;SDS011;13725;51.170;4.442;2022-08-20T01:57:18;25.85;;;10.30;;
25922;SDS011;13725;51.170;4.442;2022-08-20T01:59:47;21.48;;;10.00;;
25922;SDS011;13725;51.170;4.442;2022-08-20T02:02:14;24.73;;;11.32;;
25922;SDS011;13725;51.170;4.442;2022-08-20T02:04:40;26.35;;;11.30;;
25922;SDS011;13725;51.170;4.442;2022-08-20T02:07:07;26.42;;;12.13;;
25922;SDS011;13725;51.170;4.442;2022-08-20T02:09:39;33.67;;;12.85;;
25922;SDS011;13725;51.170;4.442;2022-08-20T02:12:05;26.90;;;13.27;;
25922;SDS011;13725;51.170;4.442;2022-08-20T02:14:33;31.33;;;14.77;;
25922;SDS011;13725;51.170;4.442;2022-08-20T02:16:59;25.05;;;13.50;;
25922;SDS011;13725;51.170;4.442;2022-08-20T02:19:30;29.17;;;13.40;;
25922;SDS011;13725;51.170;4.442;2022-08-20T02:22:08;25.35;;;14.35;;
25922;SDS011;13725;51.170;4.442;2022-08-20T02:24:58;32.20;;;13.40;;
25922;SDS011;13725;51.170;4.442;2022-08-20T02:27:24;28.20;;;12.70;;
25922;SDS011;13725;51.170;4.442;2022-08-20T02:29:50;30.73;;;12.93;;
25922;SDS011;13725;51.170;4.442;2022-08-20T02:32:17;24.67;;;10.75;;
25922;SDS011;13725;51.170;4.442;2022-08-20T02:34:44;26.05;;;10.15;;
25922;SDS011;13725;51.170;4.442;2022-08-20T02:37:10;25.30;;;9.27;;
25922;SDS011;13725;51.170;4.442;2022-08-20T02:39:40;18.85;;;8.75;;
25922;SDS011;13725;51.170;4.442;2022-08-20T02:42:06;26.35;;;9.50;;
25922;SDS011;13725;51.170;4.442;2022-08-20T02:44:33;22.77;;;9.38;;
25922;SDS011;13725;51.170;4.442;2022-08-20T02:47:00;18.40;;;7.57;;
25922;SDS011;13725;51.170;4.442;2022-08-20T02:49:25;25.45;;;8.68;;
25922;SDS011;13725;51.170;4.442;2022-08-20T02:51:51;25.00;;;9.07;;
25922;SDS011;13725;51.170;4.442;2022-08-20T02:54:17;22.35;;;8.00;;
25922;SDS011;13725;51.170;4.442;2022-08-20T02:56:43;19.17;;;7.93;;
25922;SDS011;13725;51.170;4.442;2022-08-20T02:59:09;31.52;;;8.50;;
25922;SDS011;13725;51.170;4.442;2022-08-20T03:01:34;30.25;;;9.57;;
25922;SDS011;13725;51.170;4.442;2022-08-20T03:04:00;20.10;;;8.52;;
25922;SDS011;13725;51.170;4.442;2022-08-20T03:06:27;24.83;;;9.35;;
25922;SDS011;13725;51.170;4.442;2022-08-20T03:08:53;29.77;;;8.20;;
25922;SDS011;13725;51.170;4.442;2022-08-20T03:11:20;23.20;;;9.20;;
25922;SDS011;13725;51.170;4.442;2022-08-20T03:13:45;23.23;;;8.63;;
25922;SDS011;13725;51.170;4.442;2022-08-20T03:16:12;23.77;;;10.00;;
25922;SDS011;13725;51.170;4.442;2022-08-20T03:18:40;31.73;;;10.50;;
25922;SDS011;13725;51.170;4.442;2022-08-20T03:21:07;23.95;;;10.98;;
25922;SDS011;13725;51.170;4.442;2022-08-20T03:23:34;25.77;;;10.52;;
25922;SDS011;13725;51.170;4.442;2022-08-20T03:26:03;23.48;;;10.77;;
25922;SDS011;13725;51.170;4.442;2022-08-20T03:28:30;29.88;;;11.23;;
25922;SDS011;13725;51.170;4.442;2022-08-20T03:30:57;27.00;;;13.10;;
25922;SDS011;13725;51.170;4.442;2022-08-20T03:33:24;26.60;;;10.85;;
25922;SDS011;13725;51.170;4.442;2022-08-20T03:35:50;32.88;;;10.88;;
25922;SDS011;13725;51.170;4.442;2022-08-20T03:38:17;28.85;;;10.68;;
25922;SDS011;13725;51.170;4.442;2022-08-20T03:40:45;30.67;;;10.65;;
25922;SDS011;13725;51.170;4.442;2022-08-20T03:43:12;32.13;;;10.95;;
25922;SDS011;13725;51.170;4.442;2022-08-20T03:45:39;20.75;;;10.05;;
25922;SDS011;13725;51.170;4.442;2022-08-20T03:48:13;27.15;;;9.73;;
25922;SDS011;13725;51.170;4.442;2022-08-20T03:50:40;25.92;;;11.10;;
25922;SDS011;13725;51.170;4.442;2022-08-20T03:53:08;18.27;;;9.75;;
25922;SDS011;13725;51.170;4.442;2022-08-20T03:55:36;22.02;;;8.93;;
25922;SDS011;13725;51.170;4.442;2022-08-20T03:58:03;19.73;;;8.82;;
25922;SDS011;13725;51.170;4.442;2022-08-20T04:00:36;26.05;;;10.50;;
25922;SDS011;13725;51.170;4.442;2022-08-20T04:03:07;20.45;;;9.75;;
25922;SDS011;13725;51.170;4.442;2022-08-20T04:05:34;27.48;;;10.50;;
25922;SDS011;13725;51.170;4.442;2022-08-20T04:08:04;19.13;;;9.73;;
25922;SDS011;13725;51.170;4.442;2022-08-20T04:10:37;25.10;;;10.02;;
25922;SDS011;13725;51.170;4.442;2022-08-20T04:13:04;25.63;;;10.63;;
25922;SDS011;13725;51.170;4.442;2022-08-20T04:15:31;30.90;;;11.02;;
25922;SDS011;13725;51.170;4.442;2022-08-20T04:17:58;24.38;;;10.32;;
25922;SDS011;13725;51.170;4.442;2022-08-20T04:20:24;26.17;;;10.65;;
25922;SDS011;13725;51.170;4.442;2022-08-20T04:22:51;28.90;;;11.25;;
25922;SDS011;13725;51.170;4.442;2022-08-20T04:25:18;22.80;;;10.02;;
25922;SDS011;13725;51.170;4.442;2022-08-20T04:27:45;20.35;;;9.48;;
25922;SDS011;13725;51.170;4.442;2022-08-20T04:30:15;27.02;;;10.10;;
25922;SDS011;13725;51.170;4.442;2022-08-20T04:32:42;27.20;;;11.52;;
25922;SDS011;13725;51.170;4.442;2022-08-20T04:35:09;22.85;;;10.48;;
25922;SDS011;13725;51.170;4.442;2022-08-20T04:37:39;21.98;;;11.70;;
25922;SDS011;13725;51.170;4.442;2022-08-20T04:40:06;26.30;;;10.35;;
25922;SDS011;13725;51.170;4.442;2022-08-20T04:42:52;28.30;;;10.52;;
25922;SDS011;13725;51.170;4.442;2022-08-20T04:45:18;24.73;;;10.52;;
25922;SDS011;13725;51.170;4.442;2022-08-20T04:47:44;24.13;;;10.65;;
25922;SDS011;13725;51.170;4.442;2022-08-20T04:50:11;23.30;;;9.68;;
25922;SDS011;13725;51.170;4.442;2022-08-20T04:52:38;26.90;;;11.27;;
25922;SDS011;13725;51.170;4.442;2022-08-20T04:55:04;24.13;;;11.23;;
25922;SDS011;13725;51.170;4.442;2022-08-20T04:57:32;28.95;;;13.38;;
25922;SDS011;13725;51.170;4.442;2022-08-20T04:59:59;24.00;;;11.52;;
25922;SDS011;13725;51.170;4.442;2022-08-20T05:02:24;23.52;;;12.55;;
25922;SDS011;13725;51.170;4.442;2022-08-20T05:04:53;29.73;;;11.85;;
25922;SDS011;13725;51.170;4.442;2022-08-20T05:07:18;31.52;;;11.55;;
25922;SDS011;13725;51.170;4.442;2022-08-20T05:09:44;22.13;;;12.48;;
25922;SDS011;13725;51.170;4.442;2022-08-20T05:12:10;25.80;;;11.65;;
25922;SDS011;13725;51.170;4.442;2022-08-20T05:14:39;35.90;;;12.23;;
25922;SDS011;13725;51.170;4.442;2022-08-20T05:17:06;28.90;;;11.07;;
25922;SDS011;13725;51.170;4.442;2022-08-20T05:19:33;23.80;;;11.45;;
25922;SDS011;13725;51.170;4.442;2022-08-20T05:22:02;30.55;;;10.70;;
25922;SDS011;13725;51.170;4.442;2022-08-20T05:24:28;23.92;;;11.55;;
25922;SDS011;13725;51.170;4.442;2022-08-20T05:26:54;20.80;;;10.25;;
25922;SDS011;13725;51.170;4.442;2022-08-20T05:29:20;26.92;;;10.82;;
25922;SDS011;13725;51.170;4.442;2022-08-20T05:31:46;25.20;;;10.10;;
25922;SDS011;13725;51.170;4.442;2022-08-20T05:34:12;31.23;;;11.63;;
25922;SDS011;13725;51.170;4.442;2022-08-20T05:36:39;25.42;;;10.90;;
25922;SDS011;13725;51.170;4.442;2022-08-20T05:39:07;29.15;;;11.10;;
25922;SDS011;13725;51.170;4.442;2022-08-20T05:41:33;22.67;;;10.52;;
25922;SDS011;13725;51.170;4.442;2022-08-20T05:43:59;20.08;;;11.20;;
25922;SDS011;13725;51.170;4.442;2022-08-20T05:46:25;28.48;;;11.18;;
25922;SDS011;13725;51.170;4.442;2022-08-20T05:48:51;34.97;;;11.43;;
25922;SDS011;13725;51.170;4.442;2022-08-20T05:51:17;22.58;;;11.35;;
25922;SDS011;13725;51.170;4.442;2022-08-20T05:53:42;23.00;;;9.93;;
25922;SDS011;13725;51.170;4.442;2022-08-20T05:56:08;24.60;;;10.43;;
25922;SDS011;13725;51.170;4.442;2022-08-20T05:58:35;23.42;;;11.45;;
25922;SDS011;13725;51.170;4.442;2022-08-20T06:01:02;24.77;;;10.38;;
25922;SDS011;13725;51.170;4.442;2022-08-20T06:03:28;21.40;;;9.65;;
25922;SDS011;13725;51.170;4.442;2022-08-20T06:06:13;20.83;;;8.70;;
25922;SDS011;13725;51.170;4.442;2022-08-20T06:08:39;20.95;;;8.40;;
25922;SDS011;13725;51.170;4.442;2022-08-20T06:11:05;18.02;;;8.82;;
25922;SDS011;13725;51.170;4.442;2022-08-20T06:13:32;23.05;;;8.65;;
25922;SDS011;13725;51.170;4.442;2022-08-20T06:15:58;21.13;;;8.27;;
25922;SDS011;13725;51.170;4.442;2022-08-20T06:18:25;20.08;;;7.93;;
25922;SDS011;13725;51.170;4.442;2022-08-20T06:20:51;20.15;;;9.23;;
25922;SDS011;13725;51.170;4.442;2022-08-20T06:23:17;18.42;;;7.43;;
25922;SDS011;13725;51.170;4.442;2022-08-20T06:25:44;23.38;;;8.63;;
25922;SDS011;13725;51.170;4.442;2022-08-20T06:28:12;20.88;;;7.65;;
25922;SDS011;13725;51.170;4.442;2022-08-20T06:30:38;20.05;;;8.07;;
25922;SDS011;13725;51.170;4.442;2022-08-20T06:33:04;20.00;;;8.68;;
25922;SDS011;13725;51.170;4.442;2022-08-20T06:35:30;23.35;;;9.07;;
25922;SDS011;13725;51.170;4.442;2022-08-20T06:37:58;19.80;;;8.38;;
25922;SDS011;13725;51.170;4.442;2022-08-20T06:40:26;21.65;;;8.65;;
25922;SDS011;13725;51.170;4.442;2022-08-20T06:42:53;22.10;;;9.18;;
25922;SDS011;13725;51.170;4.442;2022-08-20T06:45:25;20.33;;;8.15;;
25922;SDS011;13725;51.170;4.442;2022-08-20T06:47:55;16.20;;;8.55;;
25922;SDS011;13725;51.170;4.442;2022-08-20T06:50:24;22.25;;;9.30;;
25922;SDS011;13725;51.170;4.442;2022-08-20T06:52:51;19.67;;;8.57;;
25922;SDS011;13725;51.170;4.442;2022-08-20T06:55:17;15.88;;;6.70;;
25922;SDS011;13725;51.170;4.442;2022-08-20T06:57:43;16.80;;;6.55;;
25922;SDS011;13725;51.170;4.442;2022-08-20T07:00:11;17.63;;;6.43;;
25922;SDS011;13725;51.170;4.442;2022-08-20T07:02:40;13.05;;;6.68;;
25922;SDS011;13725;51.170;4.442;2022-08-20T07:05:06;17.42;;;6.72;;
25922;SDS011;13725;51.170;4.442;2022-08-20T07:07:32;16.50;;;6.35;;
25922;SDS011;13725;51.170;4.442;2022-08-20T07:09:59;10.85;;;6.20;;
25922;SDS011;13725;51.170;4.442;2022-08-20T07:12:25;11.55;;;5.90;;
25922;SDS011;13725;51.170;4.442;2022-08-20T07:14:51;16.77;;;7.00;;
25922;SDS011;13725;51.170;4.442;2022-08-20T07:17:17;14.10;;;6.45;;
25922;SDS011;13725;51.170;4.442;2022-08-20T07:19:43;11.32;;;6.05;;
25922;SDS011;13725;51.170;4.442;2022-08-20T07:22:08;12.07;;;6.57;;
25922;SDS011;13725;51.170;4.442;2022-08-20T07:24:36;15.25;;;6.18;;
25922;SDS011;13725;51.170;4.442;2022-08-20T07:27:02;13.35;;;5.65;;
25922;SDS011;13725;51.170;4.442;2022-08-20T07:29:28;12.05;;;5.45;;
25922;SDS011;13725;51.170;4.442;2022-08-20T07:32:14;12.68;;;5.13;;
25922;SDS011;13725;51.170;4.442;2022-08-20T07:34:58;12.30;;;4.80;;
25922;SDS011;13725;51.170;4.442;2022-08-20T07:37:24;11.60;;;5.07;;
25922;SDS011;13725;51.170;4.442;2022-08-20T07:39:50;15.35;;;5.20;;
25922;SDS011;13725;51.170;4.442;2022-08-20T07:42:17;11.93;;;5.22;;
25922;SDS011;13725;51.170;4.442;2022-08-20T07:44:42;11.95;;;5.15;;
25922;SDS011;13725;51.170;4.442;2022-08-20T07:47:08;9.68;;;4.78;;
25922;SDS011;13725;51.170;4.442;2022-08-20T07:49:37;11.50;;;5.05;;
25922;SDS011;13725;51.170;4.442;2022-08-20T07:52:04;9.48;;;4.75;;
25922;SDS011;13725;51.170;4.442;2022-08-20T07:54:30;12.98;;;4.68;;
25922;SDS011;13725;51.170;4.442;2022-08-20T07:57:02;10.73;;;4.53;;
25922;SDS011;13725;51.170;4.442;2022-08-20T07:59:28;10.98;;;4.57;;
25922;SDS011;13725;51.170;4.442;2022-08-20T08:01:55;10.13;;;4.35;;
25922;SDS011;13725;51.170;4.442;2022-08-20T08:04:20;12.35;;;4.90;;
25922;SDS011;13725;51.170;4.442;2022-08-20T08:06:48;12.13;;;4.93;;
25922;SDS011;13725;51.170;4.442;2022-08-20T08:09:15;11.98;;;4.93;;
25922;SDS011;13725;51.170;4.442;2022-08-20T08:11:42;8.93;;;4.50;;
25922;SDS011;13725;51.170;4.442;2022-08-20T08:14:15;9.70;;;4.18;;
25922;SDS011;13725;51.170;4.442;2022-08-20T08:16:47;11.13;;;4.30;;
25922;SDS011;13725;51.170;4.442;2022-08-20T08:19:13;10.30;;;4.00;;
25922;SDS011;13725;51.170;4.442;2022-08-20T08:21:41;11.10;;;4.93;;
25922;SDS011;13725;51.170;4.442;2022-08-20T08:24:08;10.93;;;4.18;;
25922;SDS011;13725;51.170;4.442;2022-08-20T08:26:35;8.55;;;4.18;;
25922;SDS011;13725;51.170;4.442;2022-08-20T08:29:01;11.15;;;4.28;;
25922;SDS011;13725;51.170;4.442;2022-08-20T08:31:27;8.75;;;4.18;;
25922;SDS011;13725;51.170;4.442;2022-08-20T08:33:53;8.20;;;4.13;;
25922;SDS011;13725;51.170;4.442;2022-08-20T08:36:19;8.93;;;3.53;;
25922;SDS011;13725;51.170;4.442;2022-08-20T08:38:45;8.75;;;3.92;;
25922;SDS011;13725;51.170;4.442;2022-08-20T08:44:15;9.05;;;3.75;;
25922;SDS011;13725;51.170;4.442;2022-08-20T08:46:48;9.18;;;2.97;;
25922;SDS011;13725;51.170;4.442;2022-08-20T08:49:20;7.00;;;3.50;;
25922;SDS011;13725;51.170;4.442;2022-08-20T08:51:53;7.72;;;3.63;;
25922;SDS011;13725;51.170;4.442;2022-08-20T08:54:26;10.43;;;2.70;;
25922;SDS011;13725;51.170;4.442;2022-08-20T08:56:55;6.18;;;2.30;;
25922;SDS011;13725;51.170;4.442;2022-08-20T08:59:23;6.85;;;2.35;;
25922;SDS011;13725;51.170;4.442;2022-08-20T09:01:54;6.80;;;2.50;;
25922;SDS011;13725;51.170;4.442;2022-08-20T09:04:33;8.32;;;2.22;;
25922;SDS011;13725;51.170;4.442;2022-08-20T09:07:03;10.02;;;2.40;;
25922;SDS011;13725;51.170;4.442;2022-08-20T09:09:35;6.15;;;1.83;;
25922;SDS011;13725;51.170;4.442;2022-08-20T09:12:09;8.02;;;2.65;;
25922;SDS011;13725;51.170;4.442;2022-08-20T09:14:38;6.22;;;2.10;;
25922;SDS011;13725;51.170;4.442;2022-08-20T09:17:05;4.45;;;1.75;;
25922;SDS011;13725;51.170;4.442;2022-08-20T09:19:31;6.07;;;1.75;;
25922;SDS011;13725;51.170;4.442;2022-08-20T09:21:57;6.75;;;1.90;;
25922;SDS011;13725;51.170;4.442;2022-08-20T09:24:23;7.18;;;1.60;;
25922;SDS011;13725;51.170;4.442;2022-08-20T09:26:49;6.57;;;1.95;;
25922;SDS011;13725;51.170;4.442;2022-08-20T09:29:14;6.10;;;1.70;;
25922;SDS011;13725;51.170;4.442;2022-08-20T09:31:41;6.28;;;1.85;;
25922;SDS011;13725;51.170;4.442;2022-08-20T09:34:06;6.85;;;1.80;;
25922;SDS011;13725;51.170;4.442;2022-08-20T09:36:32;6.95;;;1.77;;
25922;SDS011;13725;51.170;4.442;2022-08-20T09:38:59;5.38;;;1.65;;
25922;SDS011;13725;51.170;4.442;2022-08-20T09:41:25;5.40;;;1.63;;
25922;SDS011;13725;51.170;4.442;2022-08-20T09:43:51;5.70;;;1.92;;
25922;SDS011;13725;51.170;4.442;2022-08-20T09:46:17;10.07;;;1.90;;
25922;SDS011;13725;51.170;4.442;2022-08-20T09:48:42;5.43;;;1.70;;
25922;SDS011;13725;51.170;4.442;2022-08-20T09:51:08;6.90;;;1.60;;
25922;SDS011;13725;51.170;4.442;2022-08-20T09:53:34;9.27;;;1.73;;
25922;SDS011;13725;51.170;4.442;2022-08-20T09:56:00;4.32;;;1.23;;
25922;SDS011;13725;51.170;4.442;2022-08-20T10:01:08;5.85;;;1.80;;
25922;SDS011;13725;51.170;4.442;2022-08-20T10:03:35;8.98;;;1.98;;
25922;SDS011;13725;51.170;4.442;2022-08-20T10:06:01;6.50;;;1.65;;
25922;SDS011;13725;51.170;4.442;2022-08-20T10:08:27;9.77;;;1.83;;
25922;SDS011;13725;51.170;4.442;2022-08-20T10:10:53;8.18;;;1.92;;
25922;SDS011;13725;51.170;4.442;2022-08-20T10:13:19;5.35;;;1.77;;
25922;SDS011;13725;51.170;4.442;2022-08-20T10:15:45;6.18;;;1.85;;
25922;SDS011;13725;51.170;4.442;2022-08-20T10:18:10;7.95;;;2.08;;
25922;SDS011;13725;51.170;4.442;2022-08-20T10:20:36;9.77;;;2.65;;
25922;SDS011;13725;51.170;4.442;2022-08-20T10:23:02;7.10;;;2.03;;
25922;SDS011;13725;51.170;4.442;2022-08-20T10:25:28;7.95;;;1.65;;
25922;SDS011;13725;51.170;4.442;2022-08-20T10:27:54;8.93;;;1.98;;
25922;SDS011;13725;51.170;4.442;2022-08-20T10:30:20;7.53;;;2.20;;
25922;SDS011;13725;51.170;4.442;2022-08-20T10:32:46;8.18;;;2.28;;
25922;SDS011;13725;51.170;4.442;2022-08-20T10:35:12;6.60;;;2.00;;
25922;SDS011;13725;51.170;4.442;2022-08-20T10:37:38;6.25;;;2.22;;
25922;SDS011;13725;51.170;4.442;2022-08-20T10:40:04;10.82;;;2.28;;
25922;SDS011;13725;51.170;4.442;2022-08-20T10:42:31;6.90;;;1.77;;
25922;SDS011;13725;51.170;4.442;2022-08-20T10:44:56;4.65;;;1.60;;
25922;SDS011;13725;51.170;4.442;2022-08-20T10:47:23;6.80;;;1.85;;
25922;SDS011;13725;51.170;4.442;2022-08-20T10:49:51;5.88;;;1.60;;
25922;SDS011;13725;51.170;4.442;2022-08-20T10:52:19;8.10;;;2.38;;
25922;SDS011;13725;51.170;4.442;2022-08-20T10:54:46;8.02;;;2.22;;
25922;SDS011;13725;51.170;4.442;2022-08-20T10:57:13;9.38;;;2.15;;
25922;SDS011;13725;51.170;4.442;2022-08-20T10:59:42;7.47;;;2.08;;
25922;SDS011;13725;51.170;4.442;2022-08-20T11:02:09;11.70;;;2.72;;
25922;SDS011;13725;51.170;4.442;2022-08-20T11:04:35;6.72;;;1.85;;
25922;SDS011;13725;51.170;4.442;2022-08-20T11:09:48;6.75;;;1.92;;
25922;SDS011;13725;51.170;4.442;2022-08-20T11:12:15;5.63;;;1.63;;
25922;SDS011;13725;51.170;4.442;2022-08-20T11:14:42;10.57;;;2.20;;
25922;SDS011;13725;51.170;4.442;2022-08-20T11:17:08;9.52;;;2.05;;
25922;SDS011;13725;51.170;4.442;2022-08-20T11:19:41;6.22;;;1.98;;
25922;SDS011;13725;51.170;4.442;2022-08-20T11:22:08;6.72;;;1.80;;
25922;SDS011;13725;51.170;4.442;2022-08-20T11:24:34;5.15;;;1.42;;
25922;SDS011;13725;51.170;4.442;2022-08-20T11:27:00;9.05;;;2.08;;
25922;SDS011;13725;51.170;4.442;2022-08-20T11:29:26;4.57;;;1.52;;
25922;SDS011;13725;51.170;4.442;2022-08-20T11:31:52;4.65;;;1.60;;
25922;SDS011;13725;51.170;4.442;2022-08-20T11:34:18;7.07;;;2.15;;
25922;SDS011;13725;51.170;4.442;2022-08-20T11:36:44;5.57;;;2.30;;
25922;SDS011;13725;51.170;4.442;2022-08-20T11:39:11;7.05;;;2.05;;
25922;SDS011;13725;51.170;4.442;2022-08-20T11:41:37;4.63;;;1.60;;
25922;SDS011;13725;51.170;4.442;2022-08-20T11:44:03;5.85;;;2.15;;
25922;SDS011;13725;51.170;4.442;2022-08-20T11:46:29;4.65;;;1.50;;
25922;SDS011;13725;51.170;4.442;2022-08-20T11:48:57;3.42;;;1.70;;
25922;SDS011;13725;51.170;4.442;2022-08-20T11:51:23;7.07;;;1.88;;
25922;SDS011;13725;51.170;4.442;2022-08-20T11:53:48;5.90;;;2.28;;
25922;SDS011;13725;51.170;4.442;2022-08-20T11:56:14;5.72;;;2.03;;
25922;SDS011;13725;51.170;4.442;2022-08-20T11:58:43;7.70;;;2.00;;
25922;SDS011;13725;51.170;4.442;2022-08-20T12:01:10;4.70;;;1.70;;
25922;SDS011;13725;51.170;4.442;2022-08-20T12:03:36;4.90;;;1.88;;
25922;SDS011;13725;51.170;4.442;2022-08-20T12:06:01;7.45;;;2.30;;
25922;SDS011;13725;51.170;4.442;2022-08-20T12:08:27;4.65;;;1.63;;
25922;SDS011;13725;51.170;4.442;2022-08-20T12:10:55;6.30;;;2.17;;
25922;SDS011;13725;51.170;4.442;2022-08-20T12:13:22;5.88;;;1.67;;
25922;SDS011;13725;51.170;4.442;2022-08-20T12:15:48;3.85;;;1.77;;
25922;SDS011;13725;51.170;4.442;2022-08-20T12:18:15;6.43;;;1.85;;
25922;SDS011;13725;51.170;4.442;2022-08-20T12:20:40;8.45;;;2.13;;
25922;SDS011;13725;51.170;4.442;2022-08-20T12:23:06;6.60;;;2.17;;
25922;SDS011;13725;51.170;4.442;2022-08-20T12:25:32;6.55;;;1.38;;
25922;SDS011;13725;51.170;4.442;2022-08-20T12:27:58;4.50;;;1.40;;
25922;SDS011;13725;51.170;4.442;2022-08-20T12:30:24;7.95;;;2.10;;
25922;SDS011;13725;51.170;4.442;2022-08-20T12:32:49;3.70;;;1.60;;
25922;SDS011;13725;51.170;4.442;2022-08-20T12:35:16;6.63;;;1.98;;
25922;SDS011;13725;51.170;4.442;2022-08-20T12:37:43;4.80;;;1.52;;
25922;SDS011;13725;51.170;4.442;2022-08-20T12:40:11;5.45;;;1.70;;
25922;SDS011;13725;51.170;4.442;2022-08-20T12:42:39;5.75;;;1.35;;
25922;SDS011;13725;51.170;4.442;2022-08-20T12:45:05;4.00;;;1.27;;
25922;SDS011;13725;51.170;4.442;2022-08-20T12:47:32;3.22;;;1.48;;
25922;SDS011;13725;51.170;4.442;2022-08-20T12:50:01;4.78;;;1.40;;
25922;SDS011;13725;51.170;4.442;2022-08-20T12:52:29;6.00;;;1.95;;
25922;SDS011;13725;51.170;4.442;2022-08-20T12:54:56;6.85;;;1.42;;
25922;SDS011;13725;51.170;4.442;2022-08-20T12:57:27;4.30;;;1.80;;
25922;SDS011;13725;51.170;4.442;2022-08-20T12:59:59;4.43;;;1.75;;
25922;SDS011;13725;51.170;4.442;2022-08-20T13:02:29;3.20;;;1.33;;
25922;SDS011;13725;51.170;4.442;2022-08-20T13:04:56;4.60;;;1.60;;
25922;SDS011;13725;51.170;4.442;2022-08-20T13:07:21;5.32;;;1.52;;
25922;SDS011;13725;51.170;4.442;2022-08-20T13:09:47;4.93;;;1.60;;
25922;SDS011;13725;51.170;4.442;2022-08-20T13:12:13;3.97;;;1.60;;
25922;SDS011;13725;51.170;4.442;2022-08-20T13:14:39;6.28;;;1.80;;
25922;SDS011;13725;51.170;4.442;2022-08-20T13:17:05;3.72;;;1.30;;
25922;SDS011;13725;51.170;4.442;2022-08-20T13:19:32;5.07;;;1.63;;
25922;SDS011;13725;51.170;4.442;2022-08-20T13:21:58;8.05;;;1.73;;
25922;SDS011;13725;51.170;4.442;2022-08-20T13:24:24;3.83;;;1.50;;
25922;SDS011;13725;51.170;4.442;2022-08-20T13:26:50;5.97;;;1.90;;
25922;SDS011;13725;51.170;4.442;2022-08-20T13:29:16;3.08;;;1.52;;
25922;SDS011;13725;51.170;4.442;2022-08-20T13:31:43;8.52;;;2.30;;
25922;SDS011;13725;51.170;4.442;2022-08-20T13:34:09;5.45;;;1.77;;
25922;SDS011;13725;51.170;4.442;2022-08-20T13:36:35;5.68;;;2.00;;
25922;SDS011;13725;51.170;4.442;2022-08-20T13:39:02;5.10;;;1.48;;
25922;SDS011;13725;51.170;4.442;2022-08-20T13:41:30;5.13;;;1.77;;
25922;SDS011;13725;51.170;4.442;2022-08-20T13:43:56;6.45;;;1.45;;
25922;SDS011;13725;51.170;4.442;2022-08-20T13:46:22;4.13;;;1.50;;
25922;SDS011;13725;51.170;4.442;2022-08-20T13:48:48;4.57;;;1.65;;
25922;SDS011;13725;51.170;4.442;2022-08-20T13:51:13;4.57;;;1.75;;
25922;SDS011;13725;51.170;4.442;2022-08-20T13:53:39;4.45;;;1.70;;
25922;SDS011;13725;51.170;4.442;2022-08-20T13:56:05;8.23;;;1.70;;
25922;SDS011;13725;51.170;4.442;2022-08-20T13:58:31;5.25;;;1.70;;
25922;SDS011;13725;51.170;4.442;2022-08-20T14:00:56;8.43;;;2.85;;
25922;SDS011;13725;51.170;4.442;2022-08-20T14:03:22;3.55;;;1.58;;
25922;SDS011;13725;51.170;4.442;2022-08-20T14:05:48;5.63;;;1.90;;
25922;SDS011;13725;51.170;4.442;2022-08-20T14:08:18;9.88;;;2.03;;
25922;SDS011;13725;51.170;4.442;2022-08-20T14:10:45;6.63;;;1.67;;
25922;SDS011;13725;51.170;4.442;2022-08-20T14:13:18;6.72;;;1.70;;
25922;SDS011;13725;51.170;4.442;2022-08-20T14:15:46;4.43;;;1.67;;
25922;SDS011;13725;51.170;4.442;2022-08-20T14:18:13;4.97;;;1.48;;
25922;SDS011;13725;51.170;4.442;2022-08-20T14:20:39;5.53;;;1.70;;
25922;SDS011;13725;51.170;4.442;2022-08-20T14:23:06;6.72;;;2.35;;
25922;SDS011;13725;51.170;4.442;2022-08-20T14:25:31;5.78;;;1.52;;
25922;SDS011;13725;51.170;4.442;2022-08-20T14:27:57;6.95;;;1.50;;
25922;SDS011;13725;51.170;4.442;2022-08-20T14:30:32;3.42;;;1.50;;
25922;SDS011;13725;51.170;4.442;2022-08-20T14:32:58;5.60;;;1.80;;
25922;SDS011;13725;51.170;4.442;2022-08-20T14:35:23;2.35;;;1.42;;
25922;SDS011;13725;51.170;4.442;2022-08-20T14:37:50;5.82;;;1.77;;
25922;SDS011;13725;51.170;4.442;2022-08-20T14:40:17;6.15;;;1.80;;
25922;SDS011;13725;51.170;4.442;2022-08-20T14:42:44;6.32;;;2.05;;
25922;SDS011;13725;51.170;4.442;2022-08-20T14:45:11;2.75;;;1.50;;
25922;SDS011;13725;51.170;4.442;2022-08-20T14:47:39;4.45;;;1.52;;
25922;SDS011;13725;51.170;4.442;2022-08-20T14:50:15;4.27;;;1.83;;
25922;SDS011;13725;51.170;4.442;2022-08-20T14:52:46;5.53;;;2.10;;
25922;SDS011;13725;51.170;4.442;2022-08-20T14:55:14;5.30;;;1.70;;